sensor_id;sensor_type;location;lat;lon;timestamp;pressure;altitude;pressure_sealevel;temperature;humidity
58473;BME280;44775;51.564;5.460;2023-10-08T00:00:13;102015.19;;;15.95;100.00
58473;BME280;44775;51.564;5.460;2023-10-08T00:02:57;102021.09;;;15.91;100.00
58473;BME280;44775;51.564;5.460;2023-10-08T00:05:22;102034.59;;;15.91;100.00
58473;BME280;44775;51.564;5.460;2023-10-08T00:07:47;102029.34;;;15.89;100.00
58473;BME280;44775;51.564;5.460;2023-10-08T00:10:13;102028.16;;;15.92;100.00
58473;BME280;44775;51.564;5.460;2023-10-08T00:12:38;102025.97;;;15.95;100.00
58473;BME280;44775;51.564;5.460;2023-10-08T00:15:04;102028.72;;;15.79;100.00
58473;BME280;44775;51.564;5.460;2023-10-08T00:17:32;102018.66;;;15.73;100.00
58473;BME280;44775;51.564;5.460;2023-10-08T00:19:57;102028.09;;;15.69;100.00
58473;BME280;44775;51.564;5.460;2023-10-08T00:22:25;102030.44;;;15.64;100.00
58473;BME280;44775;51.564;5.460;2023-10-08T00:24:51;102031.63;;;15.61;100.00
58473;BME280;44775;51.564;5.460;2023-10-08T00:27:22;102032.78;;;15.58;100.00
58473;BME280;44775;51.564;5.460;2023-10-08T00:29:48;102037.69;;;15.55;100.00
58473;BME280;44775;51.564;5.460;2023-10-08T00:32:13;102027.78;;;15.47;100.00
58473;BME280;44775;51.564;5.460;2023-10-08T00:34:41;102036.19;;;15.44;100.00
58473;BME280;44775;51.564;5.460;2023-10-08T00:37:07;102034.03;;;15.40;100.00
58473;BME280;44775;51.564;5.460;2023-10-08T00:39:34;102040.78;;;15.35;100.00
58473;BME280;44775;51.564;5.460;2023-10-08T00:42:03;102035.41;;;15.27;100.00
58473;BME280;44775;51.564;5.460;2023-10-08T00:44:31;102041.44;;;15.21;100.00
58473;BME280;44775;51.564;5.460;2023-10-08T00:47:01;102034.72;;;15.17;100.00
58473;BME280;44775;51.564;5.460;2023-10-08T00:49:27;102044.00;;;15.06;100.00
58473;BME280;44775;51.564;5.460;2023-10-08T00:52:02;102045.84;;;15.06;100.00
58473;BME280;44775;51.564;5.460;2023-10-08T00:54:38;102055.94;;;15.04;100.00
58473;BME280;44775;51.564;5.460;2023-10-08T00:57:26;102050.22;;;14.91;100.00
58473;BME280;44775;51.564;5.460;2023-10-08T00:59:52;102039.47;;;14.82;100.00
58473;BME280;44775;51.564;5.460;2023-10-08T01:02:30;102045.50;;;14.76;100.00
58473;BME280;44775;51.564;5.460;2023-10-08T01:05:14;102036.41;;;14.69;100.00
58473;BME280;44775;51.564;5.460;2023-10-08T01:08:00;102039.44;;;14.66;100.00
58473;BME280;44775;51.564;5.460;2023-10-08T01:10:31;102022.94;;;14.61;100.00
58473;BME280;44775;51.564;5.460;2023-10-08T01:12:57;102014.88;;;14.53;100.00
58473;BME280;44775;51.564;5.460;2023-10-08T01:15:30;102025.94;;;14.50;100.00
58473;BME280;44775;51.564;5.460;2023-10-08T01:18:00;102028.13;;;14.46;100.00
58473;BME280;44775;51.564;5.460;2023-10-08T01:20:27;102024.91;;;14.43;100.00
58473;BME280;44775;51.564;5.460;2023-10-08T01:23:02;102018.19;;;14.38;100.00
58473;BME280;44775;51.564;5.460;2023-10-08T01:25:35;102018.34;;;14.37;100.00
58473;BME280;44775;51.564;5.460;2023-10-08T01:28:01;102017.00;;;14.33;100.00
58473;BME280;44775;51.564;5.460;2023-10-08T01:30:30;102012.81;;;14.38;100.00
58473;BME280;44775;51.564;5.460;2023-10-08T01:33:01;102004.38;;;14.33;100.00
58473;BME280;44775;51.564;5.460;2023-10-08T01:35:28;101988.06;;;14.27;100.00
58473;BME280;44775;51.564;5.460;2023-10-08T01:37:56;101994.78;;;14.31;100.00
58473;BME280;44775;51.564;5.460;2023-10-08T01:40:21;101991.25;;;14.30;100.00
58473;BME280;44775;51.564;5.460;2023-10-08T01:42:50;101982.69;;;14.27;100.00
58473;BME280;44775;51.564;5.460;2023-10-08T01:45:16;102000.53;;;14.28;100.00
58473;BME280;44775;51.564;5.460;2023-10-08T01:47:43;102007.25;;;14.32;100.00
58473;BME280;44775;51.564;5.460;2023-10-08T01:50:09;102012.63;;;14.32;100.00
58473;BME280;44775;51.564;5.460;2023-10-08T01:52:46;102008.22;;;14.31;100.00
58473;BME280;44775;51.564;5.460;2023-10-08T01:55:12;102010.41;;;14.27;100.00
58473;BME280;44775;51.564;5.460;2023-10-08T01:57:42;102020.34;;;14.27;100.00
58473;BME280;44775;51.564;5.460;2023-10-08T02:00:09;102028.25;;;14.28;100.00
58473;BME280;44775;51.564;5.460;2023-10-08T02:02:34;102035.31;;;14.29;100.00
58473;BME280;44775;51.564;5.460;2023-10-08T02:05:00;102039.00;;;14.28;100.00
58473;BME280;44775;51.564;5.460;2023-10-08T02:07:25;102034.97;;;14.24;100.00
58473;BME280;44775;51.564;5.460;2023-10-08T02:09:50;102031.91;;;14.19;100.00
58473;BME280;44775;51.564;5.460;2023-10-08T02:12:16;102030.06;;;14.20;100.00
58473;BME280;44775;51.564;5.460;2023-10-08T02:14:41;102041.66;;;14.20;100.00
58473;BME280;44775;51.564;5.460;2023-10-08T02:17:06;102035.63;;;14.18;100.00
58473;BME280;44775;51.564;5.460;2023-10-08T02:19:34;102028.72;;;14.15;100.00
58473;BME280;44775;51.564;5.460;2023-10-08T02:22:02;102024.16;;;14.16;100.00
58473;BME280;44775;51.564;5.460;2023-10-08T02:24:30;102013.91;;;14.11;100.00
58473;BME280;44775;51.564;5.460;2023-10-08T02:26:56;102031.41;;;14.15;100.00
58473;BME280;44775;51.564;5.460;2023-10-08T02:29:24;102033.06;;;14.16;100.00
58473;BME280;44775;51.564;5.460;2023-10-08T02:31:50;102025.13;;;14.07;100.00
58473;BME280;44775;51.564;5.460;2023-10-08T02:34:15;102034.41;;;14.12;100.00
58473;BME280;44775;51.564;5.460;2023-10-08T02:36:41;102038.44;;;14.08;100.00
58473;BME280;44775;51.564;5.460;2023-10-08T02:39:07;102030.84;;;14.04;100.00
58473;BME280;44775;51.564;5.460;2023-10-08T02:41:46;102023.66;;;14.04;100.00
58473;BME280;44775;51.564;5.460;2023-10-08T02:44:13;102032.03;;;14.01;100.00
58473;BME280;44775;51.564;5.460;2023-10-08T02:46:47;102047.63;;;13.98;100.00
58473;BME280;44775;51.564;5.460;2023-10-08T02:49:13;102050.47;;;13.96;100.00
58473;BME280;44775;51.564;5.460;2023-10-08T02:51:44;102046.75;;;13.89;100.00
58473;BME280;44775;51.564;5.460;2023-10-08T02:54:10;102072.59;;;13.90;100.00
58473;BME280;44775;51.564;5.460;2023-10-08T02:56:50;102083.34;;;13.90;100.00
58473;BME280;44775;51.564;5.460;2023-10-08T02:59:17;102050.75;;;13.85;100.00
58473;BME280;44775;51.564;5.460;2023-10-08T03:01:43;102046.44;;;13.92;100.00
58473;BME280;44775;51.564;5.460;2023-10-08T03:04:09;102047.38;;;13.83;100.00
58473;BME280;44775;51.564;5.460;2023-10-08T03:06:47;102053.59;;;13.83;100.00
58473;BME280;44775;51.564;5.460;2023-10-08T03:09:19;102057.59;;;13.79;100.00
58473;BME280;44775;51.564;5.460;2023-10-08T03:11:47;102047.88;;;13.78;100.00
58473;BME280;44775;51.564;5.460;2023-10-08T03:14:13;102052.72;;;13.75;100.00
58473;BME280;44775;51.564;5.460;2023-10-08T03:16:53;102058.63;;;13.78;100.00
58473;BME280;44775;51.564;5.460;2023-10-08T03:19:21;102058.25;;;13.73;100.00
58473;BME280;44775;51.564;5.460;2023-10-08T03:21:50;102062.63;;;13.74;100.00
58473;BME280;44775;51.564;5.460;2023-10-08T03:24:22;102071.00;;;13.71;100.00
58473;BME280;44775;51.564;5.460;2023-10-08T03:27:00;102071.69;;;13.73;100.00
58473;BME280;44775;51.564;5.460;2023-10-08T03:29:36;102080.06;;;13.70;100.00
58473;BME280;44775;51.564;5.460;2023-10-08T03:32:11;102074.00;;;13.68;100.00
58473;BME280;44775;51.564;5.460;2023-10-08T03:34:45;102069.78;;;13.65;100.00
58473;BME280;44775;51.564;5.460;2023-10-08T03:37:12;102057.91;;;13.68;100.00
58473;BME280;44775;51.564;5.460;2023-10-08T03:39:45;102064.94;;;13.69;100.00
58473;BME280;44775;51.564;5.460;2023-10-08T03:42:22;102070.00;;;13.72;100.00
58473;BME280;44775;51.564;5.460;2023-10-08T03:44:52;102077.38;;;13.70;100.00
58473;BME280;44775;51.564;5.460;2023-10-08T03:47:21;102075.88;;;13.67;100.00
58473;BME280;44775;51.564;5.460;2023-10-08T03:49:50;102066.63;;;13.70;100.00
58473;BME280;44775;51.564;5.460;2023-10-08T03:52:20;102068.97;;;13.65;100.00
58473;BME280;44775;51.564;5.460;2023-10-08T03:54:51;102076.84;;;13.66;100.00
58473;BME280;44775;51.564;5.460;2023-10-08T03:57:35;102078.69;;;13.66;100.00
58473;BME280;44775;51.564;5.460;2023-10-08T04:00:11;102088.47;;;13.67;100.00
58473;BME280;44775;51.564;5.460;2023-10-08T04:02:46;102078.69;;;13.66;100.00
58473;BME280;44775;51.564;5.460;2023-10-08T04:05:20;102064.09;;;13.68;100.00
58473;BME280;44775;51.564;5.460;2023-10-08T04:07:53;102067.81;;;13.67;100.00
58473;BME280;44775;51.564;5.460;2023-10-08T04:10:26;102067.81;;;13.67;100.00
58473;BME280;44775;51.564;5.460;2023-10-08T04:13:03;102071.66;;;13.65;100.00
58473;BME280;44775;51.564;5.460;2023-10-08T04:15:29;102089.13;;;13.69;100.00
58473;BME280;44775;51.564;5.460;2023-10-08T04:17:54;102093.13;;;13.65;100.00
58473;BME280;44775;51.564;5.460;2023-10-08T04:20:20;102103.19;;;13.63;100.00
58473;BME280;44775;51.564;5.460;2023-10-08T04:23:06;102098.66;;;13.63;100.00
58473;BME280;44775;51.564;5.460;2023-10-08T04:25:39;102088.78;;;13.64;100.00
58473;BME280;44775;51.564;5.460;2023-10-08T04:28:04;102097.81;;;13.63;100.00
58473;BME280;44775;51.564;5.460;2023-10-08T04:30:34;102096.44;;;13.59;100.00
58473;BME280;44775;51.564;5.460;2023-10-08T04:33:03;102094.78;;;13.58;100.00
58473;BME280;44775;51.564;5.460;2023-10-08T04:35:35;102099.00;;;13.60;100.00
58473;BME280;44775;51.564;5.460;2023-10-08T04:38:20;102108.19;;;13.58;100.00
58473;BME280;44775;51.564;5.460;2023-10-08T04:40:54;102118.25;;;13.56;100.00
58473;BME280;44775;51.564;5.460;2023-10-08T04:43:22;102115.03;;;13.52;100.00
58473;BME280;44775;51.564;5.460;2023-10-08T04:45:57;102117.88;;;13.51;100.00
58473;BME280;44775;51.564;5.460;2023-10-08T04:48:24;102128.47;;;13.52;100.00
58473;BME280;44775;51.564;5.460;2023-10-08T04:50:51;102129.16;;;13.54;100.00
58473;BME280;44775;51.564;5.460;2023-10-08T04:53:33;102126.38;;;13.46;100.00
58473;BME280;44775;51.564;5.460;2023-10-08T04:56:07;102117.50;;;13.45;100.00
58473;BME280;44775;51.564;5.460;2023-10-08T04:58:39;102128.56;;;13.42;100.00
58473;BME280;44775;51.564;5.460;2023-10-08T05:01:07;102123.50;;;13.39;100.00
58473;BME280;44775;51.564;5.460;2023-10-08T05:03:53;102120.75;;;13.31;100.00
58473;BME280;44775;51.564;5.460;2023-10-08T05:06:26;102123.59;;;13.30;100.00
58473;BME280;44775;51.564;5.460;2023-10-08T05:09:13;102130.44;;;13.24;100.00
58473;BME280;44775;51.564;5.460;2023-10-08T05:11:45;102142.44;;;13.20;100.00
58473;BME280;44775;51.564;5.460;2023-10-08T05:14:13;102136.69;;;13.15;100.00
58473;BME280;44775;51.564;5.460;2023-10-08T05:16:55;102134.47;;;13.10;100.00
58473;BME280;44775;51.564;5.460;2023-10-08T05:19:56;102128.41;;;13.08;100.00
58473;BME280;44775;51.564;5.460;2023-10-08T05:22:41;102125.72;;;13.08;100.00
58473;BME280;44775;51.564;5.460;2023-10-08T05:25:10;102137.59;;;13.06;100.00
58473;BME280;44775;51.564;5.460;2023-10-08T05:27:58;102141.28;;;13.05;100.00
58473;BME280;44775;51.564;5.460;2023-10-08T05:30:27;102140.59;;;13.03;100.00
58473;BME280;44775;51.564;5.460;2023-10-08T05:32:56;102131.56;;;13.04;100.00
58473;BME280;44775;51.564;5.460;2023-10-08T05:35:28;102141.59;;;13.02;100.00
58473;BME280;44775;51.564;5.460;2023-10-08T05:38:06;102154.00;;;13.03;100.00
58473;BME280;44775;51.564;5.460;2023-10-08T05:40:51;102157.69;;;13.02;100.00
58473;BME280;44775;51.564;5.460;2023-10-08T05:48:50;102147.78;;;13.02;100.00
58473;BME280;44775;51.564;5.460;2023-10-08T05:51:28;102134.53;;;13.00;100.00
58473;BME280;44775;51.564;5.460;2023-10-08T05:54:11;102122.81;;;13.02;100.00
58473;BME280;44775;51.564;5.460;2023-10-08T05:56:51;102108.25;;;13.04;100.00
58473;BME280;44775;51.564;5.460;2023-10-08T05:59:32;102095.84;;;13.03;100.00
58473;BME280;44775;51.564;5.460;2023-10-08T06:02:30;102094.66;;;13.06;100.00
58473;BME280;44775;51.564;5.460;2023-10-08T06:05:03;102105.38;;;13.06;100.00
58473;BME280;44775;51.564;5.460;2023-10-08T06:10:17;102122.19;;;13.08;100.00
58473;BME280;44775;51.564;5.460;2023-10-08T06:12:59;102125.19;;;13.05;100.00
58473;BME280;44775;51.564;5.460;2023-10-08T06:18:17;102139.75;;;13.02;100.00
58473;BME280;44775;51.564;5.460;2023-10-08T06:20:44;102142.97;;;13.06;100.00
58473;BME280;44775;51.564;5.460;2023-10-08T06:23:14;102136.09;;;13.03;100.00
58473;BME280;44775;51.564;5.460;2023-10-08T06:25:43;102147.50;;;13.05;100.00
58473;BME280;44775;51.564;5.460;2023-10-08T06:28:17;102144.66;;;13.07;100.00
58473;BME280;44775;51.564;5.460;2023-10-08T06:30:46;102153.56;;;13.07;100.00
58473;BME280;44775;51.564;5.460;2023-10-08T06:33:11;102153.69;;;13.06;100.00
58473;BME280;44775;51.564;5.460;2023-10-08T06:35:37;102156.63;;;13.12;100.00
58473;BME280;44775;51.564;5.460;2023-10-08T06:38:02;102154.78;;;13.13;100.00
58473;BME280;44775;51.564;5.460;2023-10-08T06:40:40;102149.78;;;13.18;100.00
58473;BME280;44775;51.564;5.460;2023-10-08T06:43:05;102148.66;;;13.20;100.00
58473;BME280;44775;51.564;5.460;2023-10-08T06:45:39;102137.47;;;13.25;100.00
58473;BME280;44775;51.564;5.460;2023-10-08T06:48:05;102148.31;;;13.33;100.00
58473;BME280;44775;51.564;5.460;2023-10-08T06:50:32;102165.25;;;13.34;100.00
58473;BME280;44775;51.564;5.460;2023-10-08T06:53:02;102177.88;;;13.41;100.00
58473;BME280;44775;51.564;5.460;2023-10-08T06:55:32;102169.22;;;13.48;100.00
58473;BME280;44775;51.564;5.460;2023-10-08T06:57:59;102179.13;;;13.47;100.00
58473;BME280;44775;51.564;5.460;2023-10-08T07:00:25;102195.03;;;13.66;100.00
58473;BME280;44775;51.564;5.460;2023-10-08T07:03:04;102203.22;;;13.83;100.00
58473;BME280;44775;51.564;5.460;2023-10-08T07:05:29;102207.88;;;13.99;100.00
58473;BME280;44775;51.564;5.460;2023-10-08T07:07:55;102202.84;;;14.04;100.00
58473;BME280;44775;51.564;5.460;2023-10-08T07:10:20;102198.13;;;13.98;100.00
58473;BME280;44775;51.564;5.460;2023-10-08T07:12:48;102185.38;;;14.00;100.00
58473;BME280;44775;51.564;5.460;2023-10-08T07:15:15;102208.09;;;14.05;100.00
58473;BME280;44775;51.564;5.460;2023-10-08T07:17:49;102209.03;;;14.22;100.00
58473;BME280;44775;51.564;5.460;2023-10-08T07:20:16;102199.56;;;14.44;100.00
58473;BME280;44775;51.564;5.460;2023-10-08T07:22:41;102211.59;;;14.58;100.00
58473;BME280;44775;51.564;5.460;2023-10-08T07:25:09;102212.84;;;14.72;100.00
58473;BME280;44775;51.564;5.460;2023-10-08T07:27:34;102206.59;;;14.71;100.00
58473;BME280;44775;51.564;5.460;2023-10-08T07:30:03;102204.59;;;14.73;100.00
58473;BME280;44775;51.564;5.460;2023-10-08T07:32:38;102196.91;;;14.95;100.00
58473;BME280;44775;51.564;5.460;2023-10-08T07:35:07;102211.09;;;15.13;100.00
58473;BME280;44775;51.564;5.460;2023-10-08T07:37:51;102210.06;;;15.06;100.00
58473;BME280;44775;51.564;5.460;2023-10-08T07:40:19;102215.97;;;15.09;100.00
58473;BME280;44775;51.564;5.460;2023-10-08T07:42:46;102227.41;;;15.11;100.00
58473;BME280;44775;51.564;5.460;2023-10-08T07:45:17;102219.69;;;15.17;100.00
58473;BME280;44775;51.564;5.460;2023-10-08T07:47:42;102214.44;;;15.15;100.00
58473;BME280;44775;51.564;5.460;2023-10-08T07:50:09;102215.66;;;15.21;100.00
58473;BME280;44775;51.564;5.460;2023-10-08T07:52:38;102226.28;;;15.22;100.00
58473;BME280;44775;51.564;5.460;2023-10-08T07:55:04;102219.88;;;15.31;100.00
58473;BME280;44775;51.564;5.460;2023-10-08T07:57:32;102223.44;;;15.40;100.00
58473;BME280;44775;51.564;5.460;2023-10-08T07:59:58;102226.78;;;15.58;100.00
58473;BME280;44775;51.564;5.460;2023-10-08T08:02:43;102219.59;;;15.67;100.00
58473;BME280;44775;51.564;5.460;2023-10-08T08:05:08;102234.25;;;15.81;100.00
58473;BME280;44775;51.564;5.460;2023-10-08T08:07:33;102236.59;;;15.92;100.00
58473;BME280;44775;51.564;5.460;2023-10-08T08:09:59;102263.88;;;15.97;100.00
58473;BME280;44775;51.564;5.460;2023-10-08T08:12:26;102263.06;;;15.97;100.00
58473;BME280;44775;51.564;5.460;2023-10-08T08:14:53;102272.44;;;16.25;100.00
58473;BME280;44775;51.564;5.460;2023-10-08T08:17:18;102270.28;;;16.04;100.00
58473;BME280;44775;51.564;5.460;2023-10-08T08:19:46;102266.25;;;16.00;100.00
58473;BME280;44775;51.564;5.460;2023-10-08T08:22:16;102274.16;;;16.10;100.00
58473;BME280;44775;51.564;5.460;2023-10-08T08:24:53;102273.47;;;16.16;100.00
58473;BME280;44775;51.564;5.460;2023-10-08T08:27:20;102276.50;;;16.21;100.00
58473;BME280;44775;51.564;5.460;2023-10-08T08:29:57;102290.63;;;16.40;100.00
58473;BME280;44775;51.564;5.460;2023-10-08T08:32:38;102287.91;;;16.40;100.00
58473;BME280;44775;51.564;5.460;2023-10-08T08:35:10;102292.94;;;16.59;100.00
58473;BME280;44775;51.564;5.460;2023-10-08T08:37:37;102301.03;;;16.67;100.00
58473;BME280;44775;51.564;5.460;2023-10-08T08:40:04;102304.69;;;16.83;100.00
58473;BME280;44775;51.564;5.460;2023-10-08T08:42:50;102294.53;;;16.93;100.00
58473;BME280;44775;51.564;5.460;2023-10-08T08:45:21;102305.00;;;17.27;100.00
58473;BME280;44775;51.564;5.460;2023-10-08T08:47:47;102304.44;;;17.40;100.00
58473;BME280;44775;51.564;5.460;2023-10-08T08:50:13;102298.84;;;17.64;100.00
58473;BME280;44775;51.564;5.460;2023-10-08T08:52:40;102303.84;;;17.99;100.00
58473;BME280;44775;51.564;5.460;2023-10-08T08:55:09;102306.81;;;18.27;100.00
58473;BME280;44775;51.564;5.460;2023-10-08T08:57:44;102305.44;;;18.46;100.00
58473;BME280;44775;51.564;5.460;2023-10-08T09:00:13;102311.50;;;18.62;100.00
58473;BME280;44775;51.564;5.460;2023-10-08T09:02:40;102313.06;;;18.80;100.00
58473;BME280;44775;51.564;5.460;2023-10-08T09:05:06;102315.19;;;18.84;100.00
58473;BME280;44775;51.564;5.460;2023-10-08T09:08:04;102313.63;;;18.90;100.00
58473;BME280;44775;51.564;5.460;2023-10-08T09:10:31;102327.78;;;19.22;100.00
58473;BME280;44775;51.564;5.460;2023-10-08T09:13:05;102319.28;;;19.46;100.00
58473;BME280;44775;51.564;5.460;2023-10-08T09:15:33;102327.06;;;19.71;100.00
58473;BME280;44775;51.564;5.460;2023-10-08T09:17:58;102338.91;;;19.63;100.00
58473;BME280;44775;51.564;5.460;2023-10-08T09:20:26;102338.78;;;19.56;100.00
58473;BME280;44775;51.564;5.460;2023-10-08T09:23:09;102328.53;;;19.88;100.00
58473;BME280;44775;51.564;5.460;2023-10-08T09:25:39;102335.22;;;19.71;100.00
58473;BME280;44775;51.564;5.460;2023-10-08T09:28:05;102341.28;;;19.73;100.00
58473;BME280;44775;51.564;5.460;2023-10-08T09:30:34;102339.28;;;20.03;100.00
58473;BME280;44775;51.564;5.460;2023-10-08T09:33:04;102341.13;;;19.96;100.00
58473;BME280;44775;51.564;5.460;2023-10-08T09:35:31;102345.97;;;19.79;100.00
58473;BME280;44775;51.564;5.460;2023-10-08T09:37:57;102342.63;;;19.62;100.00
58473;BME280;44775;51.564;5.460;2023-10-08T09:40:24;102349.00;;;19.54;100.00
58473;BME280;44775;51.564;5.460;2023-10-08T09:42:51;102337.34;;;19.39;100.00
58473;BME280;44775;51.564;5.460;2023-10-08T09:45:17;102346.91;;;19.35;100.00
58473;BME280;44775;51.564;5.460;2023-10-08T09:47:49;102340.19;;;19.31;100.00
58473;BME280;44775;51.564;5.460;2023-10-08T09:50:21;102322.88;;;19.32;100.00
58473;BME280;44775;51.564;5.460;2023-10-08T09:53:06;102327.78;;;19.22;100.00
58473;BME280;44775;51.564;5.460;2023-10-08T09:55:37;102327.22;;;19.11;100.00
58473;BME280;44775;51.564;5.460;2023-10-08T09:58:10;102318.34;;;19.18;100.00
58473;BME280;44775;51.564;5.460;2023-10-08T10:00:40;102316.81;;;19.30;100.00
58473;BME280;44775;51.564;5.460;2023-10-08T10:03:08;102314.22;;;19.22;100.00
58473;BME280;44775;51.564;5.460;2023-10-08T10:05:34;102308.97;;;19.20;100.00
58473;BME280;44775;51.564;5.460;2023-10-08T10:08:03;102309.84;;;19.06;100.00
58473;BME280;44775;51.564;5.460;2023-10-08T10:10:35;102305.44;;;19.20;100.00
58473;BME280;44775;51.564;5.460;2023-10-08T10:13:08;102305.72;;;19.10;100.00
58473;BME280;44775;51.564;5.460;2023-10-08T10:15:38;102312.66;;;18.98;100.00
58473;BME280;44775;51.564;5.460;2023-10-08T10:18:13;102321.75;;;18.90;100.00
58473;BME280;44775;51.564;5.460;2023-10-08T10:20:40;102325.53;;;18.66;100.00
58473;BME280;44775;51.564;5.460;2023-10-08T10:26:26;102320.06;;;18.22;100.00
58473;BME280;44775;51.564;5.460;2023-10-08T10:31:53;102302.28;;;18.04;100.00
58473;BME280;44775;51.564;5.460;2023-10-08T10:34:25;102303.34;;;18.18;100.00
58473;BME280;44775;51.564;5.460;2023-10-08T10:36:53;102308.13;;;18.31;100.00
58473;BME280;44775;51.564;5.460;2023-10-08T10:39:24;102308.97;;;18.31;100.00
58473;BME280;44775;51.564;5.460;2023-10-08T10:41:59;102316.63;;;18.42;100.00
58473;BME280;44775;51.564;5.460;2023-10-08T10:44:28;102326.81;;;18.55;100.00
58473;BME280;44775;51.564;5.460;2023-10-08T10:46:58;102334.25;;;18.76;100.00
58473;BME280;44775;51.564;5.460;2023-10-08T10:49:46;102329.41;;;18.72;100.00
58473;BME280;44775;51.564;5.460;2023-10-08T10:52:22;102323.81;;;18.73;100.00
58473;BME280;44775;51.564;5.460;2023-10-08T10:55:02;102325.53;;;18.66;100.00
58473;BME280;44775;51.564;5.460;2023-10-08T10:57:47;102324.94;;;18.41;100.00
58473;BME280;44775;51.564;5.460;2023-10-08T11:00:20;102326.13;;;18.24;100.00
58473;BME280;44775;51.564;5.460;2023-10-08T11:02:59;102323.44;;;18.24;100.00
58473;BME280;44775;51.564;5.460;2023-10-08T11:05:32;102331.91;;;18.21;100.00
58473;BME280;44775;51.564;5.460;2023-10-08T11:08:02;102332.41;;;18.01;100.00
58473;BME280;44775;51.564;5.460;2023-10-08T11:10:38;102335.94;;;18.02;100.00
58473;BME280;44775;51.564;5.460;2023-10-08T11:13:08;102340.63;;;18.08;100.00
58473;BME280;44775;51.564;5.460;2023-10-08T11:15:43;102322.97;;;17.97;100.00
58473;BME280;44775;51.564;5.460;2023-10-08T11:18:14;102331.41;;;17.79;100.00
58473;BME280;44775;51.564;5.460;2023-10-08T11:20:40;102324.63;;;17.83;100.00
58473;BME280;44775;51.564;5.460;2023-10-08T11:25:59;102329.44;;;18.11;100.00
58473;BME280;44775;51.564;5.460;2023-10-08T11:31:01;102321.34;;;18.11;100.00
58473;BME280;44775;51.564;5.460;2023-10-08T11:33:37;102320.13;;;18.13;100.00
58473;BME280;44775;51.564;5.460;2023-10-08T11:36:03;102319.88;;;18.23;100.00
58473;BME280;44775;51.564;5.460;2023-10-08T11:38:41;102318.13;;;18.45;100.00
58473;BME280;44775;51.564;5.460;2023-10-08T11:41:11;102322.25;;;18.56;100.00
58473;BME280;44775;51.564;5.460;2023-10-08T11:43:46;102319.06;;;18.52;100.00
58473;BME280;44775;51.564;5.460;2023-10-08T11:46:11;102314.22;;;18.48;100.00
58473;BME280;44775;51.564;5.460;2023-10-08T11:48:40;102314.69;;;18.36;100.00
58473;BME280;44775;51.564;5.460;2023-10-08T11:51:08;102314.22;;;18.33;100.00
58473;BME280;44775;51.564;5.460;2023-10-08T11:53:37;102322.53;;;18.46;100.00
58473;BME280;44775;51.564;5.460;2023-10-08T11:56:02;102309.06;;;18.38;100.00
58473;BME280;44775;51.564;5.460;2023-10-08T11:58:28;102295.44;;;18.16;100.00
58473;BME280;44775;51.564;5.460;2023-10-08T12:01:02;102293.00;;;18.22;100.00
58473;BME280;44775;51.564;5.460;2023-10-08T12:03:28;102297.00;;;18.26;100.00
58473;BME280;44775;51.564;5.460;2023-10-08T12:05:54;102290.03;;;18.31;100.00
58473;BME280;44775;51.564;5.460;2023-10-08T12:08:24;102284.34;;;18.41;100.00
58473;BME280;44775;51.564;5.460;2023-10-08T12:10:53;102283.22;;;18.35;100.00
58473;BME280;44775;51.564;5.460;2023-10-08T12:13:21;102286.84;;;18.28;100.00
58473;BME280;44775;51.564;5.460;2023-10-08T12:15:53;102288.00;;;18.48;100.00
58473;BME280;44775;51.564;5.460;2023-10-08T12:18:30;102284.25;;;18.20;100.00
58473;BME280;44775;51.564;5.460;2023-10-08T12:20:56;102275.75;;;18.23;100.00
58473;BME280;44775;51.564;5.460;2023-10-08T12:23:21;102271.72;;;18.18;100.00
58473;BME280;44775;51.564;5.460;2023-10-08T12:25:55;102266.06;;;18.58;100.00
58473;BME280;44775;51.564;5.460;2023-10-08T12:28:25;102275.63;;;18.83;100.00
58473;BME280;44775;51.564;5.460;2023-10-08T12:30:53;102281.38;;;18.95;100.00
58473;BME280;44775;51.564;5.460;2023-10-08T12:33:21;102281.16;;;19.11;100.00
58473;BME280;44775;51.564;5.460;2023-10-08T12:35:49;102278.78;;;19.23;100.00
58473;BME280;44775;51.564;5.460;2023-10-08T12:38:18;102276.22;;;19.37;100.00
58473;BME280;44775;51.564;5.460;2023-10-08T12:40:48;102278.38;;;19.41;100.00
58473;BME280;44775;51.564;5.460;2023-10-08T12:43:26;102276.19;;;19.51;100.00
58473;BME280;44775;51.564;5.460;2023-10-08T12:45:55;102268.44;;;19.70;100.00
58473;BME280;44775;51.564;5.460;2023-10-08T12:48:23;102266.13;;;19.67;100.00
58473;BME280;44775;51.564;5.460;2023-10-08T12:50:52;102265.84;;;19.62;100.00
58473;BME280;44775;51.564;5.460;2023-10-08T12:53:25;102266.75;;;19.47;100.00
58473;BME280;44775;51.564;5.460;2023-10-08T12:56:06;102257.31;;;19.43;100.00
58473;BME280;44775;51.564;5.460;2023-10-08T12:58:36;102255.78;;;19.34;100.00
58473;BME280;44775;51.564;5.460;2023-10-08T13:01:07;102253.06;;;19.34;100.00
58473;BME280;44775;51.564;5.460;2023-10-08T13:03:35;102240.66;;;19.25;100.00
58473;BME280;44775;51.564;5.460;2023-10-08T13:06:06;102242.78;;;19.29;100.00
58473;BME280;44775;51.564;5.460;2023-10-08T13:08:36;102235.75;;;19.35;100.00
58473;BME280;44775;51.564;5.460;2023-10-08T13:11:01;102225.75;;;19.57;100.00
58473;BME280;44775;51.564;5.460;2023-10-08T13:13:27;102228.81;;;19.69;100.00
58473;BME280;44775;51.564;5.460;2023-10-08T13:15:53;102221.69;;;19.89;100.00
58473;BME280;44775;51.564;5.460;2023-10-08T13:18:22;102228.56;;;20.20;100.00
58473;BME280;44775;51.564;5.460;2023-10-08T13:20:47;102224.09;;;20.05;100.00